Time;durP1;ratioP1;P1;durP2;ratioP2;P2;SDS_P1;SDS_P2;PMS_P1;PMS_P2;Temp;Humidity;BMP_temperature;BMP_pressure;BME280_temperature;BME280_humidity;BME280_pressure;Samples;Min_cycle;Max_cycle;Signal;HPM_P1;HPM_P2
2023/03/05 00:01:53;;;;;;;6.10;1.10;;;3.50;99.90;;;;;;5014336;28;20485;-80
2023/03/05 00:04:20;;;;;;;4.63;1.05;;;3.60;99.90;;;;;;5030290;28;20064;-80
2023/03/05 00:06:46;;;;;;;4.07;1.35;;;3.60;99.90;;;;;;4997648;28;20041;-80
2023/03/05 00:09:11;;;;;;;3.97;0.80;;;4.80;99.90;;;;;;5029991;28;20037;-80
2023/03/05 00:11:38;;;;;;;3.28;0.80;;;3.60;99.90;;;;;;5013488;28;20034;-80
2023/03/05 00:14:05;;;;;;;4.30;0.93;;;3.60;99.90;;;;;;5013569;28;20061;-79
2023/03/05 00:16:32;;;;;;;4.88;0.80;;;3.60;99.90;;;;;;5029700;28;20068;-79
2023/03/05 00:19:00;;;;;;;4.50;0.85;;;3.60;99.90;;;;;;5030437;28;20039;-80
2023/03/05 00:21:32;;;;;;;4.18;1.40;;;3.60;99.90;;;;;;5013057;28;20076;-79
2023/03/05 00:24:02;;;;;;;3.97;0.80;;;3.70;99.90;;;;;;5030422;28;20057;-79
2023/03/05 00:26:29;;;;;;;5.07;0.60;;;3.90;99.90;;;;;;5013405;28;20044;-79
2023/03/05 00:28:56;;;;;;;7.18;1.02;;;3.60;99.90;;;;;;5013548;28;20116;-80
2023/03/05 00:31:25;;;;;;;3.55;0.68;;;3.60;99.90;;;;;;5029278;28;20033;-79
2023/03/05 00:33:55;;;;;;;6.75;1.00;;;3.60;99.90;;;;;;5030090;28;20166;-80
2023/03/05 00:36:21;;;;;;;2.17;0.70;;;3.60;99.90;;;;;;5013274;28;20339;-80
2023/03/05 00:38:47;;;;;;;8.30;0.88;;;3.60;99.90;;;;;;5013546;28;20470;-80
2023/03/05 00:41:13;;;;;;;8.98;1.10;;;3.60;99.90;;;;;;5013110;28;20034;-80
2023/03/05 00:43:39;;;;;;;4.97;0.87;;;4.70;99.90;;;;;;5029070;28;20029;-80
2023/03/05 00:46:04;;;;;;;4.73;0.70;;;4.60;99.90;;;;;;5029692;28;20621;-79
2023/03/05 00:48:30;;;;;;;5.40;1.00;;;3.80;99.90;;;;;;5029104;28;20033;-79
2023/03/05 00:50:56;;;;;;;4.90;0.80;;;3.60;99.90;;;;;;5013082;28;20033;-79
2023/03/05 00:53:22;;;;;;;3.55;0.70;;;3.70;99.90;;;;;;5012498;28;20052;-79
2023/03/05 00:55:48;;;;;;;6.03;1.30;;;3.70;99.90;;;;;;5029526;28;20041;-79
2023/03/05 00:58:14;;;;;;;2.70;0.80;;;3.70;99.90;;;;;;5013261;28;20052;-79
2023/03/05 01:00:40;;;;;;;5.20;1.05;;;3.70;99.90;;;;;;5012689;28;20742;-79
2023/03/05 01:03:06;;;;;;;2.88;0.73;;;3.70;99.90;;;;;;5011845;28;20041;-79
2023/03/05 01:05:32;;;;;;;2.30;0.60;;;3.60;99.90;;;;;;5012614;28;20048;-79
2023/03/05 01:07:58;;;;;;;4.07;0.88;;;3.60;99.90;;;;;;4996591;28;20425;-79
2023/03/05 01:10:26;;;;;;;2.97;0.73;;;3.60;99.90;;;;;;5028408;28;21140;-79
2023/03/05 01:12:56;;;;;;;4.22;0.85;;;3.70;99.90;;;;;;5013264;28;20486;-79
2023/03/05 01:15:23;;;;;;;7.50;1.00;;;3.70;99.90;;;;;;5012436;28;20140;-78
2023/03/05 01:17:49;;;;;;;6.53;0.90;;;4.20;99.90;;;;;;5028816;28;20830;-79
2023/03/05 01:20:16;;;;;;;3.17;0.73;;;4.60;99.90;;;;;;5012464;28;20038;-79
2023/03/05 01:22:42;;;;;;;6.88;1.00;;;3.70;99.90;;;;;;5028498;28;20120;-79
2023/03/05 01:25:08;;;;;;;7.27;0.97;;;4.00;99.90;;;;;;4996042;28;20525;-79
2023/03/05 01:27:34;;;;;;;4.13;0.90;;;3.60;99.90;;;;;;5011823;28;20346;-79
2023/03/05 01:30:00;;;;;;;3.88;0.93;;;3.90;99.90;;;;;;5028758;28;20069;-79
2023/03/05 01:32:26;;;;;;;6.53;1.08;;;3.50;99.90;;;;;;5028204;28;20461;-80
2023/03/05 01:34:51;;;;;;;2.50;0.85;;;3.50;99.90;;;;;;5028535;28;20045;-79
2023/03/05 01:37:17;;;;;;;2.63;0.85;;;3.70;99.90;;;;;;5011748;28;20132;-79
2023/03/05 01:39:43;;;;;;;5.27;1.10;;;4.00;99.90;;;;;;4995369;28;20144;-80
2023/03/05 01:42:08;;;;;;;2.97;1.00;;;3.30;99.90;;;;;;4995488;28;20284;-79
2023/03/05 01:44:34;;;;;;;3.73;1.00;;;3.30;99.90;;;;;;5012213;28;20029;-79
2023/03/05 01:47:01;;;;;;;4.68;0.93;;;4.20;99.90;;;;;;4995762;28;20296;-79
2023/03/05 01:49:37;;;;;;;3.05;0.80;;;3.20;99.90;;;;;;5027668;28;20082;-80
2023/03/05 01:52:18;;;;;;;3.70;1.00;;;3.30;99.90;;;;;;5011540;28;20056;-80
2023/03/05 01:54:48;;;;;;;3.78;1.00;;;3.30;99.90;;;;;;5027810;28;20081;-79
2023/03/05 01:57:19;;;;;;;3.83;0.90;;;3.20;99.90;;;;;;5028457;28;20116;-79
2023/03/05 01:59:49;;;;;;;3.08;0.93;;;3.20;99.90;;;;;;5027603;28;20045;-79
2023/03/05 02:02:16;;;;;;;7.13;1.15;;;3.20;99.90;;;;;;5011648;28;20045;-79
2023/03/05 02:04:56;;;;;;;4.78;0.77;;;3.10;99.90;;;;;;5027935;28;20120;-79
2023/03/05 02:07:23;;;;;;;5.25;0.90;;;3.20;99.90;;;;;;5028137;28;20045;-80
2023/03/05 02:09:48;;;;;;;;;;;3.20;99.90;;;;;;5012569;28;20033;-79
2023/03/05 02:12:15;;;;;;;3.45;0.82;;;3.40;99.90;;;;;;5027745;28;19917;-79
2023/03/05 02:14:44;;;;;;;2.15;0.98;;;3.20;99.90;;;;;;5011137;28;20466;-80
2023/03/05 02:17:10;;;;;;;4.00;0.90;;;3.10;99.90;;;;;;5011386;28;20049;-80
2023/03/05 02:19:46;;;;;;;7.07;1.30;;;3.60;99.90;;;;;;5010930;28;20134;-79
2023/03/05 02:22:17;;;;;;;3.15;0.80;;;3.10;99.90;;;;;;5027778;28;20183;-79
2023/03/05 02:24:43;;;;;;;5.20;2.63;;;3.10;99.90;;;;;;5010879;28;20037;-78
2023/03/05 02:27:09;;;;;;;4.47;1.20;;;3.20;99.90;;;;;;5011260;28;20405;-79
2023/03/05 02:29:39;;;;;;;5.40;0.93;;;3.20;99.90;;;;;;5027319;28;20618;-79
2023/03/05 02:32:05;;;;;;;4.28;1.13;;;3.00;99.90;;;;;;5011476;28;20037;-79
2023/03/05 02:34:31;;;;;;;2.22;0.60;;;3.00;99.90;;;;;;5027109;28;20045;-79
2023/03/05 02:36:56;;;;;;;2.13;0.93;;;3.00;99.90;;;;;;5027569;28;20057;-78
2023/03/05 02:39:22;;;;;;;2.50;1.40;;;4.00;99.90;;;;;;5027890;28;20504;-79
2023/03/05 02:41:48;;;;;;;2.80;0.80;;;3.10;99.90;;;;;;5027389;28;20091;-79
2023/03/05 02:44:14;;;;;;;3.35;0.90;;;3.10;99.90;;;;;;5027835;28;20045;-79
2023/03/05 02:46:39;;;;;;;3.92;1.42;;;3.60;99.90;;;;;;4994355;28;20044;-80
2023/03/05 02:49:05;;;;;;;2.80;1.00;;;3.10;99.90;;;;;;5011546;28;20033;-80
2023/03/05 02:51:32;;;;;;;4.07;0.90;;;3.10;99.90;;;;;;5010669;28;20061;-80
2023/03/05 02:53:58;;;;;;;1.95;1.00;;;4.00;99.90;;;;;;5027793;28;20448;-80
2023/03/05 02:56:23;;;;;;;5.85;1.10;;;3.10;99.90;;;;;;5027149;28;20091;-80
2023/03/05 02:58:49;;;;;;;2.80;0.90;;;3.90;99.90;;;;;;4978068;28;20033;-80
2023/03/05 03:01:15;;;;;;;1.27;1.00;;;3.10;99.90;;;;;;5027568;28;20038;-80
2023/03/05 03:03:40;;;;;;;1.45;1.00;;;3.10;99.90;;;;;;4994326;28;20080;-80
2023/03/05 03:06:06;;;;;;;0.90;0.60;;;3.10;99.90;;;;;;5027964;28;20045;-80
2023/03/05 03:08:32;;;;;;;2.50;0.80;;;3.30;99.90;;;;;;5026775;28;20292;-80
2023/03/05 03:11:04;;;;;;;4.70;1.00;;;3.20;99.90;;;;;;5027344;28;20041;-80
2023/03/05 03:13:30;;;;;;;1.10;0.73;;;3.10;99.90;;;;;;4994533;28;20041;-80
2023/03/05 03:16:08;;;;;;;1.67;1.00;;;3.20;99.90;;;;;;5027236;28;20041;-79
2023/03/05 03:18:34;;;;;;;1.08;0.60;;;3.20;99.90;;;;;;5010624;28;20049;-80
2023/03/05 03:21:00;;;;;;;2.90;0.90;;;3.10;99.90;;;;;;5010761;28;20049;-80
2023/03/05 03:23:26;;;;;;;5.18;0.70;;;3.10;99.90;;;;;;5027321;28;20037;-80
2023/03/05 03:25:52;;;;;;;2.63;0.95;;;3.20;99.90;;;;;;5027301;28;20045;-80
2023/03/05 03:28:17;;;;;;;3.22;0.98;;;4.10;99.90;;;;;;5014558;28;20045;-80
2023/03/05 03:30:43;;;;;;;5.78;1.00;;;3.10;99.90;;;;;;5031090;28;20124;-79
2023/03/05 03:33:09;;;;;;;3.70;0.77;;;3.90;99.90;;;;;;5014918;28;20096;-80
2023/03/05 03:35:34;;;;;;;5.85;0.90;;;3.00;99.90;;;;;;5030799;28;20290;-79
2023/03/05 03:38:00;;;;;;;1.60;0.80;;;3.00;99.90;;;;;;4998293;28;20144;-79
2023/03/05 03:40:26;;;;;;;6.97;1.38;;;2.90;99.90;;;;;;5014523;28;20047;-80
2023/03/05 03:42:52;;;;;;;4.18;1.02;;;2.90;99.90;;;;;;5030613;28;20045;-80
2023/03/05 03:45:20;;;;;;;5.80;1.10;;;2.90;99.90;;;;;;5030714;28;20037;-80
2023/03/05 03:47:50;;;;;;;6.28;1.25;;;3.20;99.90;;;;;;5030340;28;20048;-80
2023/03/05 03:50:17;;;;;;;5.35;2.00;;;2.80;99.90;;;;;;5030933;28;20044;-80
2023/03/05 03:52:43;;;;;;;5.45;1.15;;;2.80;99.90;;;;;;5013382;28;20124;-80
2023/03/05 03:55:09;;;;;;;1.80;0.75;;;3.60;99.90;;;;;;5030886;28;20120;-80
2023/03/05 03:57:36;;;;;;;3.70;0.90;;;2.70;99.90;;;;;;5013713;28;20037;-80
2023/03/05 04:00:05;;;;;;;3.58;1.05;;;2.70;99.90;;;;;;5014279;28;20059;-80
2023/03/05 04:02:31;;;;;;;3.70;1.00;;;2.70;99.90;;;;;;5030614;28;20091;-78
2023/03/05 04:04:57;;;;;;;2.83;1.13;;;3.50;99.90;;;;;;5030156;28;20041;-78
2023/03/05 04:07:23;;;;;;;5.35;0.82;;;2.80;99.90;;;;;;5030725;28;20114;-79
2023/03/05 04:09:49;;;;;;;4.47;0.70;;;2.80;99.90;;;;;;5013461;28;20034;-79
2023/03/05 04:12:17;;;;;;;4.28;0.98;;;2.80;99.90;;;;;;5014105;28;20485;-79
2023/03/05 04:14:47;;;;;;;13.32;1.35;;;3.30;99.90;;;;;;5029837;28;20038;-79
2023/03/05 04:17:14;;;;;;;5.18;1.00;;;3.70;99.90;;;;;;5030583;28;20508;-79
2023/03/05 04:19:40;;;;;;;1.75;0.80;;;2.70;99.90;;;;;;5013340;28;20038;-79
2023/03/05 04:22:09;;;;;;;;;;;3.40;99.90;;;;;;5030300;28;20144;-79
2023/03/05 04:24:34;;;;;;;2.92;0.90;;;2.70;99.90;;;;;;5029932;28;19999;-78
2023/03/05 04:27:00;;;;;;;5.90;1.00;;;2.70;99.90;;;;;;4997008;28;20554;-79
2023/03/05 04:29:26;;;;;;;2.58;1.00;;;2.70;99.90;;;;;;5013305;28;20303;-79
2023/03/05 04:31:51;;;;;;;4.20;0.93;;;2.60;99.90;;;;;;5029484;28;20116;-79
2023/03/05 04:34:17;;;;;;;6.25;1.40;;;2.60;99.90;;;;;;5029884;28;20327;-79
2023/03/05 04:36:43;;;;;;;2.67;0.80;;;3.70;99.90;;;;;;5028962;28;20053;-79
2023/03/05 04:39:09;;;;;;;2.15;0.80;;;3.10;99.90;;;;;;5028544;28;20044;-79
2023/03/05 04:41:34;;;;;;;3.43;0.83;;;2.60;99.90;;;;;;4996994;28;20117;-79
2023/03/05 04:44:00;;;;;;;3.20;0.80;;;2.60;99.90;;;;;;4994838;28;20281;-79
2023/03/05 04:46:26;;;;;;;3.80;0.80;;;2.60;99.90;;;;;;5012892;28;20334;-79
2023/03/05 04:48:52;;;;;;;4.13;0.98;;;2.70;99.90;;;;;;5013099;28;20037;-79
2023/03/05 04:51:17;;;;;;;2.47;0.88;;;2.70;99.90;;;;;;5012700;28;20058;-79
2023/03/05 04:53:43;;;;;;;4.68;0.80;;;2.80;99.90;;;;;;4980527;28;20052;-79
2023/03/05 04:56:09;;;;;;;3.08;1.00;;;2.70;99.90;;;;;;5013529;28;20036;-79
2023/03/05 04:58:35;;;;;;;2.90;1.00;;;3.50;99.90;;;;;;5029316;28;20050;-79
2023/03/05 05:01:05;;;;;;;8.23;1.43;;;2.70;99.90;;;;;;5028791;28;20292;-79
2023/03/05 05:03:31;;;;;;;2.30;0.90;;;2.90;99.90;;;;;;5029208;28;20287;-79
2023/03/05 05:05:58;;;;;;;5.38;1.25;;;2.70;99.90;;;;;;5012385;28;20033;-80
2023/03/05 05:08:25;;;;;;;2.45;0.98;;;2.70;99.90;;;;;;5012464;28;20037;-79
2023/03/05 05:11:02;;;;;;;4.28;0.98;;;2.70;99.90;;;;;;5012056;28;20033;-80
2023/03/05 05:13:28;;;;;;;;;;;2.80;99.90;;;;;;5029485;28;20103;-79
2023/03/05 05:15:54;;;;;;;1.30;0.70;;;2.70;99.90;;;;;;5028815;28;19920;-79
2023/03/05 05:18:20;;;;;;;5.40;0.75;;;2.60;99.90;;;;;;4996591;28;20398;-79
2023/03/05 05:20:47;;;;;;;5.13;0.82;;;2.60;99.90;;;;;;5028390;28;20041;-79
2023/03/05 05:23:12;;;;;;;;;;;2.50;99.90;;;;;;5029575;28;20183;-79
2023/03/05 05:25:38;;;;;;;1.33;0.73;;;2.70;99.90;;;;;;5012316;28;19952;-79
2023/03/05 05:28:04;;;;;;;1.40;0.60;;;2.50;99.90;;;;;;5028037;28;20795;-80
2023/03/05 05:30:30;;;;;;;3.97;0.63;;;2.50;99.90;;;;;;5028597;28;20504;-78
2023/03/05 05:32:56;;;;;;;1.90;0.70;;;2.50;99.90;;;;;;5028460;28;20493;-79
2023/03/05 05:35:22;;;;;;;3.28;0.65;;;2.60;99.90;;;;;;5012312;28;20044;-79
2023/03/05 05:37:47;;;;;;;2.90;0.68;;;2.60;99.90;;;;;;5028296;28;20037;-79
2023/03/05 05:40:13;;;;;;;3.47;0.60;;;2.60;99.90;;;;;;5028422;28;20049;-79
2023/03/05 05:42:39;;;;;;;1.75;0.52;;;2.60;99.90;;;;;;5028659;28;20254;-79
2023/03/05 05:45:05;;;;;;;2.78;0.60;;;2.60;99.90;;;;;;5011675;28;20045;-79
2023/03/05 05:47:31;;;;;;;1.63;0.70;;;2.70;99.90;;;;;;5011854;28;20056;-79
2023/03/05 05:49:57;;;;;;;4.07;0.50;;;3.50;99.90;;;;;;5027563;28;20371;-79
2023/03/05 05:52:23;;;;;;;1.80;0.60;;;2.60;99.90;;;;;;5027711;28;20058;-79
2023/03/05 05:54:49;;;;;;;3.03;0.73;;;2.60;99.90;;;;;;5012041;28;20037;-79
2023/03/05 05:57:14;;;;;;;4.28;0.82;;;2.50;99.90;;;;;;5012138;28;20103;-80
2023/03/05 05:59:41;;;;;;;4.57;0.90;;;3.00;99.90;;;;;;5011727;28;20044;-79
2023/03/05 06:02:07;;;;;;;2.17;0.60;;;2.40;99.90;;;;;;5011470;28;20127;-79
2023/03/05 06:04:34;;;;;;;5.57;1.00;;;2.40;99.90;;;;;;5025505;28;20124;-79
2023/03/05 06:07:00;;;;;;;1.95;0.70;;;2.60;99.90;;;;;;5011452;28;20049;-79
2023/03/05 06:09:26;;;;;;;2.92;0.80;;;2.30;99.90;;;;;;5011878;28;20482;-79
2023/03/05 06:11:51;;;;;;;2.28;1.08;;;2.30;99.90;;;;;;5027918;28;20040;-79
2023/03/05 06:14:17;;;;;;;1.92;0.68;;;2.30;99.90;;;;;;5028112;28;20033;-79
2023/03/05 06:16:43;;;;;;;1.30;0.60;;;2.20;99.90;;;;;;5028346;28;20041;-79
2023/03/05 06:19:13;;;;;;;1.92;0.60;;;2.30;99.90;;;;;;5027864;28;20073;-79
2023/03/05 06:21:39;;;;;;;3.70;0.70;;;2.20;99.90;;;;;;4995315;28;20033;-79
2023/03/05 06:24:05;;;;;;;1.63;0.50;;;2.20;99.90;;;;;;4994990;28;20128;-79
2023/03/05 06:26:31;;;;;;;3.63;0.60;;;2.20;99.90;;;;;;5028114;28;20482;-79
2023/03/05 06:28:57;;;;;;;1.50;0.50;;;2.20;99.90;;;;;;5027560;28;20033;-79
2023/03/05 06:31:25;;;;;;;3.20;0.98;;;2.10;99.90;;;;;;5011503;28;20148;-79
2023/03/05 06:33:57;;;;;;;4.57;0.70;;;2.10;99.90;;;;;;5027847;28;20389;-79
2023/03/05 06:36:24;;;;;;;3.80;0.60;;;3.10;99.90;;;;;;5027389;28;20037;-79
2023/03/05 06:38:50;;;;;;;3.83;0.70;;;3.10;99.90;;;;;;5027477;28;20063;-79
2023/03/05 06:41:18;;;;;;;2.70;0.90;;;2.40;99.90;;;;;;5027973;28;20230;-79
2023/03/05 06:43:46;;;;;;;4.63;0.80;;;2.20;99.90;;;;;;5027971;28;20512;-79
2023/03/05 06:46:15;;;;;;;2.13;0.73;;;3.20;99.90;;;;;;5008741;28;20102;-79
2023/03/05 06:48:42;;;;;;;4.65;0.90;;;2.20;99.90;;;;;;5027745;28;20084;-79
2023/03/05 06:51:17;;;;;;;6.60;0.90;;;2.90;99.90;;;;;;5027206;28;20499;-79
2023/03/05 06:53:43;;;;;;;2.63;0.88;;;2.20;99.90;;;;;;5011080;28;20514;-79
2023/03/05 06:56:10;;;;;;;1.48;0.65;;;2.30;99.90;;;;;;5027223;28;20037;-79
2023/03/05 06:58:35;;;;;;;3.22;0.88;;;2.40;99.90;;;;;;4994772;28;20085;-80
2023/03/05 07:01:05;;;;;;;3.75;1.33;;;2.30;99.90;;;;;;5027851;28;20127;-79
2023/03/05 07:03:31;;;;;;;2.25;0.80;;;2.40;99.90;;;;;;5014991;28;20041;-79
2023/03/05 07:05:56;;;;;;;4.38;1.23;;;2.40;99.90;;;;;;5031393;28;20048;-79
2023/03/05 07:08:22;;;;;;;5.38;1.20;;;4.00;99.90;;;;;;5014919;28;20277;-80
2023/03/05 07:10:48;;;;;;;3.67;0.73;;;2.60;99.90;;;;;;5014966;28;20528;-79
2023/03/05 07:13:13;;;;;;;2.93;0.83;;;2.50;99.90;;;;;;5015020;28;20291;-79
2023/03/05 07:15:40;;;;;;;2.20;0.70;;;3.30;99.90;;;;;;5014684;28;20457;-80
2023/03/05 07:18:06;;;;;;;;;;;2.60;99.90;;;;;;4998611;28;20103;-79
2023/03/05 07:20:37;;;;;;;4.72;0.85;;;2.60;99.90;;;;;;5064243;28;19925;-80
2023/03/05 07:23:03;;;;;;;5.75;1.38;;;2.70;99.90;;;;;;5031139;28;20497;-79
2023/03/05 07:25:29;;;;;;;4.78;0.98;;;2.70;99.90;;;;;;5031142;28;20041;-79
2023/03/05 07:27:55;;;;;;;7.70;1.35;;;2.90;99.90;;;;;;5030697;28;20041;-80
2023/03/05 07:30:21;;;;;;;4.47;1.15;;;2.90;99.90;;;;;;5014874;28;20467;-79
2023/03/05 07:32:46;;;;;;;5.32;1.20;;;3.00;99.90;;;;;;5031084;28;20068;-79
2023/03/05 07:35:12;;;;;;;2.72;1.13;;;3.10;99.90;;;;;;5030805;28;20978;-80
2023/03/05 07:37:38;;;;;;;6.50;1.08;;;3.20;99.90;;;;;;5014226;28;20508;-80
2023/03/05 07:40:04;;;;;;;2.33;1.00;;;3.40;99.90;;;;;;5014087;28;20045;-80
2023/03/05 07:42:30;;;;;;;6.78;1.00;;;3.50;99.90;;;;;;5014107;28;20280;-81
2023/03/05 07:44:56;;;;;;;4.03;0.98;;;3.50;99.90;;;;;;5030165;28;20039;-80
2023/03/05 07:47:24;;;;;;;3.95;1.50;;;3.60;99.90;;;;;;5030797;28;20111;-80
2023/03/05 07:49:50;;;;;;;5.85;1.40;;;3.80;99.90;;;;;;5015165;28;20034;-80
2023/03/05 07:52:16;;;;;;;5.70;0.95;;;3.90;99.90;;;;;;5030136;28;20124;-81
2023/03/05 07:54:42;;;;;;;3.50;0.90;;;4.00;99.90;;;;;;5013805;28;20132;-81
2023/03/05 07:57:11;;;;;;;6.18;0.80;;;4.10;99.90;;;;;;4981507;28;20512;-81
2023/03/05 07:59:38;;;;;;;4.85;0.80;;;4.20;99.90;;;;;;5014161;28;20163;-78
2023/03/05 08:02:04;;;;;;;2.70;0.70;;;4.70;99.90;;;;;;5013679;28;20045;-80
2023/03/05 08:04:30;;;;;;;5.50;0.85;;;4.30;99.90;;;;;;5030679;28;20041;-79
2023/03/05 08:06:57;;;;;;;3.95;0.80;;;4.50;99.90;;;;;;4997480;28;20046;-80
2023/03/05 08:09:23;;;;;;;5.32;1.20;;;4.60;99.90;;;;;;4997987;28;20041;-79
2023/03/05 08:11:49;;;;;;;3.60;0.80;;;5.00;99.90;;;;;;5011176;28;20047;-79
2023/03/05 08:14:15;;;;;;;2.85;0.60;;;5.20;99.90;;;;;;5029699;28;20287;-79
2023/03/05 08:16:41;;;;;;;4.18;0.80;;;5.30;99.90;;;;;;5028150;28;20073;-80
2023/03/05 08:19:07;;;;;;;2.47;0.95;;;5.40;99.90;;;;;;5030195;28;20122;-78
2023/03/05 08:21:34;;;;;;;2.40;0.70;;;5.60;99.90;;;;;;5030020;28;20037;-80
2023/03/05 08:24:03;;;;;;;3.63;0.90;;;5.70;99.90;;;;;;5013409;28;20502;-77
2023/03/05 08:26:30;;;;;;;2.88;0.70;;;5.80;99.90;;;;;;5030047;28;20043;-81
2023/03/05 08:28:57;;;;;;;5.05;0.80;;;5.90;99.90;;;;;;5030923;28;20033;-82
2023/03/05 08:31:25;;;;;;;2.50;1.08;;;6.00;99.90;;;;;;4998380;28;20422;-82
2023/03/05 08:33:53;;;;;;;5.00;0.82;;;6.10;99.90;;;;;;4999190;28;20373;-81
2023/03/05 08:36:19;;;;;;;8.57;0.85;;;6.40;99.90;;;;;;4998179;28;20033;-83
2023/03/05 08:38:47;;;;;;;6.03;0.93;;;6.90;99.90;;;;;;5014729;28;20080;-81
2023/03/05 08:41:14;;;;;;;2.20;0.65;;;7.30;99.90;;;;;;4997508;28;20068;-81
2023/03/05 08:43:40;;;;;;;7.93;1.05;;;7.80;99.90;;;;;;5029865;28;20516;-81
2023/03/05 08:46:06;;;;;;;4.80;1.05;;;8.30;99.90;;;;;;5029459;28;20037;-80
2023/03/05 08:48:33;;;;;;;5.72;0.85;;;8.50;99.90;;;;;;5013182;28;20092;-81
2023/03/05 08:51:07;;;;;;;4.35;0.60;;;8.60;99.90;;;;;;5013373;28;20037;-78
2023/03/05 08:53:33;;;;;;;4.43;0.88;;;8.70;99.90;;;;;;5014600;28;20122;-81
2023/03/05 08:56:00;;;;;;;3.83;0.55;;;8.70;99.90;;;;;;5030192;28;20029;-81
2023/03/05 08:58:25;;;;;;;7.40;0.80;;;8.70;99.90;;;;;;5012945;28;20076;-81
2023/03/05 09:00:51;;;;;;;5.00;0.85;;;8.40;99.90;;;;;;4980555;28;20076;-81
2023/03/05 09:03:17;;;;;;;3.85;1.38;;;8.40;99.90;;;;;;4996520;28;20045;-80
2023/03/05 09:05:43;;;;;;;8.40;1.00;;;8.60;99.90;;;;;;5013073;28;20041;-80
2023/03/05 09:08:09;;;;;;;4.90;0.77;;;9.00;99.90;;;;;;4996343;28;20037;-81
2023/03/05 09:10:35;;;;;;;4.47;0.60;;;9.10;99.90;;;;;;4997009;28;20037;-82
2023/03/05 09:13:02;;;;;;;2.67;0.70;;;9.10;99.90;;;;;;5029443;28;20041;-80
2023/03/05 09:15:29;;;;;;;5.15;0.73;;;8.80;99.90;;;;;;5013341;28;20038;-81
2023/03/05 09:17:56;;;;;;;6.13;0.73;;;8.30;99.90;;;;;;5011845;28;20364;-80
2023/03/05 09:20:21;;;;;;;2.17;0.40;;;7.80;99.90;;;;;;4997007;28;20164;-80
2023/03/05 09:22:47;;;;;;;2.83;0.68;;;6.90;99.90;;;;;;5013444;28;20493;-80
2023/03/05 09:25:13;;;;;;;2.67;0.40;;;6.40;99.90;;;;;;5012175;28;20041;-80
2023/03/05 09:27:38;;;;;;;1.70;0.40;;;6.20;99.90;;;;;;5013175;28;20103;-80
2023/03/05 09:30:05;;;;;;;2.22;0.55;;;5.90;99.90;;;;;;5012530;28;20300;-80
2023/03/05 09:32:31;;;;;;;2.72;0.52;;;5.90;99.90;;;;;;5013201;28;20044;-81
2023/03/05 09:34:57;;;;;;;3.22;0.45;;;5.80;99.90;;;;;;4996532;28;20068;-79
2023/03/05 09:37:23;;;;;;;0.75;0.57;;;6.00;99.90;;;;;;4996473;28;20052;-80
2023/03/05 09:39:49;;;;;;;1.92;0.30;;;6.10;99.90;;;;;;5012741;28;20052;-80
2023/03/05 09:42:43;;;;;;;2.20;0.40;;;6.50;99.90;;;;;;5028759;28;20137;-80
2023/03/05 09:45:23;;;;;;;1.48;0.40;;;7.00;99.90;;;;;;5012526;28;20677;-80
2023/03/05 09:48:04;;;;;;;3.90;0.50;;;7.80;99.90;;;;;;5012902;28;20116;-80
2023/03/05 09:50:44;;;;;;;3.75;0.50;;;8.30;99.90;;;;;;5027992;28;20049;-80
2023/03/05 09:53:39;;;;;;;1.98;0.40;;;8.70;99.90;;;;;;5012080;28;20056;-80
2023/03/05 09:56:34;;;;;;;3.97;0.40;;;9.00;99.90;;;;;;5027746;28;20457;-80
2023/03/05 09:59:27;;;;;;;1.90;0.70;;;9.20;99.90;;;;;;5013027;28;20063;-80
2023/03/05 10:01:58;;;;;;;1.38;0.50;;;9.20;99.90;;;;;;5012601;28;20037;-80
2023/03/05 10:04:43;;;;;;;4.85;0.60;;;9.40;99.90;;;;;;5012082;28;20034;-80
2023/03/05 10:07:29;;;;;;;3.03;0.50;;;9.50;99.90;;;;;;5028360;28;20038;-81
2023/03/05 10:09:59;;;;;;;4.30;0.68;;;9.30;99.90;;;;;;5011772;28;20037;-80
2023/03/05 10:12:57;;;;;;;3.72;0.70;;;9.30;99.90;;;;;;5011883;28;20039;-80
2023/03/05 10:15:43;;;;;;;6.05;0.70;;;9.00;99.90;;;;;;5010632;28;20370;-79
2023/03/05 10:18:32;;;;;;;3.60;0.47;;;8.90;99.90;;;;;;5028172;28;20136;-79
2023/03/05 10:21:02;;;;;;;2.67;0.40;;;8.50;99.90;;;;;;5028146;28;20049;-80
2023/03/05 10:23:49;;;;;;;3.75;0.60;;;8.40;99.90;;;;;;5012256;28;20526;-80
2023/03/05 10:26:20;;;;;;;4.82;1.45;;;8.30;99.90;;;;;;5009932;28;20489;-80
2023/03/05 10:29:11;;;;;;;5.15;0.52;;;8.40;99.90;;;;;;5028061;28;20115;-79
2023/03/05 10:32:00;;;;;;;4.25;0.68;;;8.80;99.90;;;;;;5028554;28;20037;-80
2023/03/05 10:34:34;;;;;;;5.90;0.65;;;9.40;99.90;;;;;;5009519;28;20044;-80
2023/03/05 10:37:21;;;;;;;3.20;0.47;;;9.70;99.90;;;;;;5011897;28;20037;-80
2023/03/05 10:40:24;;;;;;;2.95;0.50;;;10.00;99.90;;;;;;5011646;28;20095;-80
2023/03/05 10:42:55;;;;;;;2.17;0.43;;;10.60;99.90;;;;;;4988330;28;20045;-80
2023/03/05 10:45:28;;;;;;;6.20;0.73;;;10.90;99.90;;;;;;5011355;28;20042;-80
2023/03/05 10:48:21;;;;;;;3.80;0.70;;;10.80;99.90;;;;;;5011955;28;20049;-79
2023/03/05 10:50:50;;;;;;;1.80;0.50;;;10.50;99.90;;;;;;5011696;28;20095;-80
2023/03/05 10:53:26;;;;;;;2.05;0.30;;;10.00;99.90;;;;;;5025543;28;20045;-80
2023/03/05 10:55:55;;;;;;;3.00;0.50;;;9.60;99.90;;;;;;5028059;28;20131;-80
2023/03/05 10:58:23;;;;;;;3.17;0.40;;;10.10;99.90;;;;;;4995701;28;20076;-80
2023/03/05 11:01:04;;;;;;;3.30;0.45;;;10.70;99.90;;;;;;5028321;28;20477;-81
2023/03/05 11:03:48;;;;;;;1.98;0.40;;;11.40;99.90;;;;;;5011460;28;20041;-80
2023/03/05 11:06:25;;;;;;;2.22;0.40;;;11.10;99.90;;;;;;5027746;28;20478;-80
2023/03/05 11:08:50;;;;;;;2.93;0.30;;;11.20;99.90;;;;;;5011455;28;20506;-80
2023/03/05 11:11:18;;;;;;;2.45;0.40;;;11.40;99.90;;;;;;5027591;28;20123;-80
2023/03/05 11:13:47;;;;;;;2.50;0.50;;;11.40;99.90;;;;;;5028079;28;20469;-80
2023/03/05 11:16:21;;;;;;;4.15;0.50;;;11.80;99.90;;;;;;5011155;28;20341;-80
2023/03/05 11:18:47;;;;;;;3.88;0.50;;;12.30;99.90;;;;;;5011361;28;20053;-80
2023/03/05 11:21:20;;;;;;;4.15;0.40;;;12.20;99.90;;;;;;5011010;28;20064;-80
2023/03/05 11:24:24;;;;;;;3.10;0.52;;;11.90;99.90;;;;;;5011471;28;20087;-81
2023/03/05 11:26:53;;;;;;;4.70;0.52;;;11.70;99.90;;;;;;4920194;28;20066;-81
2023/03/05 11:29:25;;;;;;;4.80;0.40;;;11.20;99.90;;;;;;4967752;28;20124;-80
2023/03/05 11:31:51;;;;;;;4.07;0.80;;;10.60;99.90;;;;;;4990239;28;20124;-81
2023/03/05 11:34:17;;;;;;;;;;;11.00;99.90;;;;;;4995052;28;20131;-81
2023/03/05 11:36:44;;;;;;;2.70;0.40;;;11.90;99.90;;;;;;5027592;28;19932;-81
2023/03/05 11:39:18;;;;;;;2.38;0.40;;;12.60;99.90;;;;;;5011197;28;20040;-81
2023/03/05 11:41:51;;;;;;;3.60;0.35;;;12.70;99.90;;;;;;5011391;28;20378;-81
2023/03/05 11:44:20;;;;;;;2.50;0.43;;;12.10;99.90;;;;;;5010826;28;20030;-81
2023/03/05 11:46:53;;;;;;;1.63;0.30;;;11.80;99.90;;;;;;4995155;28;20040;-80
2023/03/05 11:49:26;;;;;;;3.28;0.73;;;10.90;99.90;;;;;;5031134;28;20052;-81
2023/03/05 11:52:06;;;;;;;4.47;0.47;;;10.50;99.90;;;;;;5031258;28;20527;-81
2023/03/05 11:54:52;;;;;;;1.75;0.40;;;10.70;99.90;;;;;;5014667;28;20494;-81
2023/03/05 11:57:22;;;;;;;2.22;0.30;;;10.80;99.90;;;;;;5014516;28;20123;-81
2023/03/05 11:59:50;;;;;;;2.05;0.50;;;10.60;99.90;;;;;;5031128;28;20037;-81
2023/03/05 12:02:26;;;;;;;4.68;0.30;;;10.40;99.90;;;;;;5014646;28;20033;-81
2023/03/05 12:04:52;;;;;;;4.03;0.63;;;10.40;99.90;;;;;;5015624;28;20041;-81
2023/03/05 12:07:41;;;;;;;4.18;0.50;;;10.40;99.90;;;;;;4981316;28;20040;-81
2023/03/05 12:10:16;;;;;;;3.00;0.47;;;11.00;99.90;;;;;;5014577;28;20041;-81
2023/03/05 12:13:05;;;;;;;4.45;0.50;;;10.60;99.90;;;;;;5014295;28;20168;-82
2023/03/05 12:15:48;;;;;;;2.80;0.30;;;10.10;99.90;;;;;;5014033;28;20195;-81
2023/03/05 12:18:39;;;;;;;3.70;0.55;;;9.90;99.90;;;;;;5031366;28;20037;-81
2023/03/05 12:21:20;;;;;;;2.20;0.50;;;9.60;99.90;;;;;;5014446;28;20129;-81
2023/03/05 12:23:49;;;;;;;3.22;0.60;;;9.20;99.90;;;;;;5014452;28;20405;-80
2023/03/05 12:26:14;;;;;;;3.28;0.40;;;9.20;99.90;;;;;;5014606;28;20454;-80
2023/03/05 12:28:40;;;;;;;4.25;0.40;;;9.60;99.90;;;;;;4997348;28;20088;-80
2023/03/05 12:31:09;;;;;;;3.57;0.40;;;10.10;99.90;;;;;;5030679;28;20068;-81
2023/03/05 12:33:37;;;;;;;2.90;0.50;;;10.50;99.90;;;;;;5013950;28;20299;-81
2023/03/05 12:36:18;;;;;;;2.85;0.85;;;10.20;99.90;;;;;;5030364;28;20076;-81
2023/03/05 12:39:29;;;;;;;1.00;0.30;;;10.10;99.90;;;;;;5030613;28;20549;-80
2023/03/05 12:41:55;;;;;;;4.78;0.80;;;10.70;99.90;;;;;;5013876;28;20477;-80
2023/03/05 12:44:22;;;;;;;3.35;0.35;;;11.20;99.90;;;;;;4997423;28;20044;-80
2023/03/05 12:47:10;;;;;;;3.22;0.52;;;11.20;99.90;;;;;;5013980;28;20205;-80
2023/03/05 12:49:43;;;;;;;3.10;0.40;;;11.20;99.90;;;;;;5013318;28;20033;-81
2023/03/05 12:52:23;;;;;;;1.95;0.45;;;11.30;99.90;;;;;;5013885;28;20402;-80
2023/03/05 12:55:19;;;;;;;2.17;0.68;;;11.00;99.90;;;;;;5030744;28;20034;-80
2023/03/05 12:57:46;;;;;;;2.17;0.30;;;10.70;99.90;;;;;;5028245;28;20204;-81
2023/03/05 13:00:12;;;;;;;3.10;0.50;;;10.40;99.90;;;;;;5011264;28;20037;-82
2023/03/05 13:02:45;;;;;;;5.13;0.60;;;10.20;99.90;;;;;;5030343;28;20515;-81
2023/03/05 13:05:46;;;;;;;2.25;0.38;;;10.60;99.90;;;;;;5014064;28;20042;-81
2023/03/05 13:08:25;;;;;;;1.63;0.40;;;11.50;99.90;;;;;;5017064;28;20082;-81
2023/03/05 13:11:01;;;;;;;3.92;0.30;;;12.00;99.90;;;;;;5029766;28;20059;-80